Time;durP1;ratioP1;P1;durP2;ratioP2;P2;SDS_P1;SDS_P2;PMS_P1;PMS_P2;Temp;Humidity;BMP_temperature;BMP_pressure;BME280_temperature;BME280_humidity;BME280_pressure;Samples;Min_cycle;Max_cycle;Signal;HPM_P1;HPM_P2
2022/08/22 00:02:11;;;;;;;;;5.67;4.00;;;;;21.08;56.05;100845.41;5077050;28;45397;-61
2022/08/22 00:04:48;;;;;;;;;6.00;5.00;;;;;21.11;55.71;100845.97;5075584;28;45406;-61
2022/08/22 00:07:33;;;;;;;;;7.75;4.75;;;;;21.11;56.12;100851.41;5057631;28;45384;-61
2022/08/22 00:10:10;;;;;;;;;6.67;6.67;;;;;21.14;55.56;100856.50;5076502;28;45361;-61
2022/08/22 00:12:51;;;;;;;;;6.33;5.33;;;;;21.17;55.38;100852.63;5076682;28;45495;-60
2022/08/22 00:15:41;;;;;;;;;7.67;5.00;;;;;21.13;55.60;100838.56;5083982;27;47157;-61
2022/08/22 00:18:16;;;;;;;;;3.33;3.33;;;;;21.04;55.55;100828.63;5097102;27;45288;-59
2022/08/22 00:20:53;;;;;;;;;6.00;6.00;;;;;21.06;55.86;100829.34;5096500;27;45373;-61
2022/08/22 00:23:51;;;;;;;;;4.00;4.00;;;;;21.07;55.60;100827.47;5097012;27;45354;-63
2022/08/22 00:26:38;;;;;;;;;5.33;4.33;;;;;20.98;55.59;100820.28;5092975;27;45621;-64
2022/08/22 00:29:07;;;;;;;;;4.33;4.33;;;;;20.94;55.80;100808.88;5096421;27;45349;-63
2022/08/22 00:31:42;;;;;;;;;5.00;5.00;;;;;21.01;55.96;100812.72;5096479;27;45349;-65
2022/08/22 00:34:21;;;;;;;;;4.00;4.00;;;;;21.01;55.56;100815.41;5097106;27;45275;-61
2022/08/22 00:37:14;;;;;;;;;5.00;4.00;;;;;20.94;55.72;100806.19;5096349;27;45421;-66
2022/08/22 00:39:54;;;;;;;;;6.00;5.00;;;;;21.05;55.50;100815.97;5096927;27;45329;-61
2022/08/22 00:42:23;;;;;;;;;7.33;4.00;;;;;21.06;55.31;100813.09;5098525;27;45630;-60
2022/08/22 00:44:54;;;;;;;;;4.67;4.67;;;;;21.04;55.55;100815.13;5100268;27;45370;-62
2022/08/22 00:47:42;;;;;;;;;3.33;3.00;;;;;21.01;55.65;100828.94;5099940;27;46611;-60
2022/08/22 00:50:33;;;;;;;;;4.00;4.00;;;;;20.97;55.73;100827.53;5100371;27;45558;-60
2022/08/22 00:53:17;;;;;;;;;4.67;4.67;;;;;20.98;55.43;100822.97;5100146;27;45413;-60
2022/08/22 00:56:10;;;;;;;;;3.00;3.00;;;;;20.97;55.54;100832.09;5082012;27;45352;-60
2022/08/22 00:58:57;;;;;;;;;5.67;5.67;;;;;20.94;55.36;100818.84;5099827;27;45460;-62
2022/08/22 01:01:35;;;;;;;;;4.00;4.00;;;;;20.92;55.34;100817.13;5099426;27;45391;-61
2022/08/22 01:04:27;;;;;;;;;3.00;3.00;;;;;20.99;54.71;100817.41;5099810;27;45376;-61
2022/08/22 01:07:59;;;;;;;;;5.00;5.00;;;;;20.99;54.95;100830.09;5099774;27;45211;-61
2022/08/22 01:10:49;;;;;;;;;4.25;3.00;;;;;20.98;54.46;100834.66;4996602;28;46307;-62
2022/08/22 01:13:23;;;;;;;;;4.50;4.50;;;;;20.97;54.73;100829.38;5099791;27;45240;-59
2022/08/22 01:15:58;;;;;;;;;4.00;4.00;;;;;20.94;54.46;100838.63;5085401;27;45278;-62
2022/08/22 01:19:03;;;;;;;;;3.00;2.33;;;;;20.92;54.08;100829.81;5079427;28;45271;-59
2022/08/22 01:22:06;;;;;;;;;7.67;4.00;;;;;20.92;54.30;100829.81;5060830;28;47169;-65
2022/08/22 01:25:17;;;;;;;;;3.00;1.00;;;;;20.87;54.14;100824.00;5079638;28;45380;-60
2022/08/22 01:27:51;;;;;;;;;3.33;3.33;;;;;20.89;53.97;100830.09;5079838;28;45435;-62
2022/08/22 01:30:43;;;;;;;;;4.00;4.00;;;;;20.82;54.18;100828.97;5079338;28;45569;-64
2022/08/22 01:33:50;;;;;;;;;4.00;4.00;;;;;20.82;54.50;100820.88;5078955;28;45243;-60
2022/08/22 01:36:40;;;;;;;;;3.00;3.00;;;;;20.82;54.37;100815.47;5049807;27;45347;-59
2022/08/22 01:39:06;;;;;;;;;4.33;3.00;;;;;20.78;54.16;100811.34;5079482;28;45315;-62
2022/08/22 01:41:56;;;;;;;;;4.25;3.50;;;;;20.76;54.38;100810.66;5061143;28;45425;-64
2022/08/22 01:44:43;;;;;;;;;4.00;4.00;;;;;20.76;54.50;100807.94;5078475;28;45717;-61
2022/08/22 01:47:20;;;;;;;;;4.67;3.67;;;;;20.72;54.66;100809.25;5078681;28;45444;-60
2022/08/22 01:49:57;;;;;;;;;5.33;3.00;;;;;20.67;54.28;100787.19;5078859;28;45400;-59
2022/08/22 01:52:38;;;;;;;;;3.67;2.67;;;;;20.67;54.24;100798.00;5078440;28;45527;-61
2022/08/22 01:55:17;;;;;;;;;5.00;3.00;;;;;20.61;54.41;100800.31;5077559;28;45433;-61
2022/08/22 01:57:59;;;;;;;;;5.33;4.00;;;;;20.51;54.70;100794.06;5060341;28;45342;-61
2022/08/22 02:00:30;;;;;;;;;7.67;3.33;;;;;20.53;54.76;100796.63;5077605;28;45469;-61
2022/08/22 02:03:04;;;;;;;;;4.00;4.00;;;;;20.50;54.54;100807.72;5078903;28;45288;-61
2022/08/22 02:05:45;;;;;;;;;3.00;3.00;;;;;20.47;54.71;100803.47;5078097;28;45314;-60
2022/08/22 02:08:39;;;;;;;;;4.00;4.00;;;;;20.43;54.72;100812.84;5059739;28;45343;-61
2022/08/22 02:11:11;;;;;;;;;3.00;3.00;;;;;20.43;54.83;100817.38;5078173;28;45412;-64
2022/08/22 02:13:53;;;;;;;;;4.00;3.00;;;;;20.41;54.88;100822.91;5078561;28;45544;-64
2022/08/22 02:16:34;;;;;;;;;6.00;3.00;;;;;20.40;54.98;100821.19;5095968;27;45423;-62
2022/08/22 02:19:17;;;;;;;;;4.00;2.33;;;;;20.39;55.20;100816.78;5098419;27;45349;-63
2022/08/22 02:21:55;;;;;;;;;3.00;3.00;;;;;20.38;55.29;100811.53;5081583;27;45405;-63
2022/08/22 02:24:27;;;;;;;;;5.67;5.00;;;;;20.39;55.19;100816.78;5098367;27;45430;-63
2022/08/22 02:27:18;;;;;;;;;5.00;3.00;;;;;20.29;55.14;100803.28;5098000;27;46166;-62
2022/08/22 02:29:49;;;;;;;;;5.00;5.00;;;;;20.34;55.16;100805.59;5097877;27;45798;-64
2022/08/22 02:32:32;;;;;;;;;5.00;3.00;;;;;20.30;55.06;100806.84;5099712;27;45394;-62
2022/08/22 02:35:07;;;;;;;;;4.33;2.67;;;;;20.30;54.59;100806.84;5098937;27;45507;-61
2022/08/22 02:37:55;;;;;;;;;5.00;3.33;;;;;20.21;54.59;100792.38;5098557;27;45587;-64
2022/08/22 02:40:52;;;;;;;;;3.00;3.00;;;;;20.19;54.84;100809.72;5098374;27;45339;-60
2022/08/22 02:43:22;;;;;;;;;6.00;4.00;;;;;20.14;54.89;100806.56;5096840;27;45296;-61
2022/08/22 02:46:02;;;;;;;;;3.67;3.33;;;;;20.18;55.02;100813.38;5098657;27;45337;-62
2022/08/22 02:48:51;;;;;;;;;3.00;3.00;;;;;20.17;54.83;100812.53;5096517;27;46065;-60
2022/08/22 02:51:41;;;;;;;;;7.00;4.00;;;;;20.17;54.97;100811.69;5096693;27;45369;-62
2022/08/22 02:54:09;;;;;;;;;3.33;3.00;;;;;20.16;55.19;100804.59;5097999;27;45417;-60
2022/08/22 02:57:09;;;;;;;;;3.00;3.00;;;;;20.13;54.99;100810.28;5098135;27;45457;-62
2022/08/22 02:59:57;;;;;;;;;3.00;3.00;;;;;20.09;55.00;100803.47;5056376;27;47213;-62
2022/08/22 03:02:41;;;;;;;;;5.00;4.00;;;;;20.07;55.06;100802.75;5097254;27;45326;-60
2022/08/22 03:05:22;;;;;;;;;5.33;4.00;;;;;20.02;55.35;100808.56;5096601;27;45432;-60
2022/08/22 03:08:04;;;;;;;;;6.00;3.00;;;;;20.02;55.40;100804.00;5098116;27;45482;-60
2022/08/22 03:10:38;;;;;;;;;3.00;3.00;;;;;19.97;55.36;100790.09;5097434;27;46298;-61
2022/08/22 03:13:10;;;;;;;;;4.00;4.00;;;;;20.01;55.61;100813.09;5097734;27;45329;-61
2022/08/22 03:15:54;;;;;;;;;1.67;1.67;;;;;19.95;55.47;100796.63;5085515;27;45891;-64
2022/08/22 03:18:24;;;;;;;;;4.00;2.67;;;;;20.00;55.48;100795.22;5076683;28;45330;-60
2022/08/22 03:20:49;;;;;;;;;2.00;2.00;;;;;19.99;55.40;100798.91;5077505;28;45266;-60
2022/08/22 03:23:32;;;;;;;;;4.00;3.00;;;;;19.99;55.50;100804.31;5077212;28;45242;-63
2022/08/22 03:26:22;;;;;;;;;2.67;2.67;;;;;19.94;55.77;100806.59;5077085;28;45302;-61
2022/08/22 03:29:03;;;;;;;;;6.33;4.33;;;;;19.99;55.56;100808.84;5077864;28;45454;-60
2022/08/22 03:31:30;;;;;;;;;5.00;5.00;;;;;19.95;56.09;100800.19;5076493;28;45336;-65
2022/08/22 03:34:14;;;;;;;;;7.00;3.00;;;;;19.94;56.15;100805.72;5077475;28;45243;-59
2022/08/22 03:36:47;;;;;;;;;4.00;4.00;;;;;19.93;55.96;100799.47;5077731;27;45363;-60
2022/08/22 03:39:37;;;;;;;;;4.00;2.00;;;;;19.89;56.35;100802.59;5077329;28;45852;-60
2022/08/22 03:42:14;;;;;;;;;5.00;5.00;;;;;19.89;56.32;100795.34;5076902;28;46600;-63
2022/08/22 03:44:49;;;;;;;;;6.00;3.67;;;;;19.89;56.04;100795.34;5076354;28;45379;-65
2022/08/22 03:47:29;;;;;;;;;6.00;4.00;;;;;19.82;56.30;100788.81;5076923;28;45475;-63
2022/08/22 03:50:17;;;;;;;;;4.00;3.00;;;;;19.79;56.60;100789.06;5076796;28;45272;-63
2022/08/22 03:53:24;;;;;;;;;4.00;4.00;;;;;19.72;56.70;100796.88;5068238;28;45545;-62
2022/08/22 03:56:14;;;;;;;;;6.33;3.67;;;;;19.68;57.18;100794.63;5076640;28;45444;-62
2022/08/22 03:59:18;;;;;;;;;3.00;3.00;;;;;19.66;56.98;100791.19;5058734;28;45387;-63
2022/08/22 04:01:43;;;;;;;;;4.67;3.00;;;;;19.62;57.13;100789.75;5076983;28;45357;-65
2022/08/22 04:04:39;;;;;;;;;3.00;3.00;;;;;19.59;57.23;100784.66;5076368;28;45996;-64
2022/08/22 04:07:43;;;;;;;;;5.00;3.67;;;;;19.55;57.32;100784.09;5058112;28;45424;-65
2022/08/22 04:10:18;;;;;;;;;4.00;4.00;;;;;19.54;57.51;100781.50;5071623;27;45608;-64
2022/08/22 04:13:21;;;;;;;;;3.67;3.33;;;;;19.47;57.57;100780.34;5076766;28;45228;-62
2022/08/22 04:16:05;;;;;;;;;5.67;4.00;;;;;19.43;58.32;100780.63;5089218;27;45259;-64
2022/08/22 04:18:51;;;;;;;;;3.00;3.00;;;;;19.41;58.13;100777.22;5096571;27;45353;-63
2022/08/22 04:21:40;;;;;;;;;6.33;5.00;;;;;19.43;58.07;100780.63;5096961;27;45394;-64
2022/08/22 04:24:24;;;;;;;;;3.67;2.00;;;;;19.41;58.29;100784.47;5096922;27;45313;-64
2022/08/22 04:27:05;;;;;;;;;5.67;4.00;;;;;19.41;58.24;100781.75;5096598;27;46506;-64
2022/08/22 04:29:48;;;;;;;;;4.00;4.00;;;;;19.41;57.87;100788.00;5096673;27;45426;-65
2022/08/22 04:33:05;;;;;;;;;3.00;3.00;;;;;19.41;58.22;100779.91;5095364;27;45369;-65
2022/08/22 04:35:36;;;;;;;;;8.33;4.33;;;;;19.40;58.17;100780.91;5062432;27;45397;-61
2022/08/22 04:38:11;;;;;;;;;5.67;3.00;;;;;19.32;58.14;100771.78;5095209;27;45408;-61
2022/08/22 04:40:49;;;;;;;;;2.67;2.67;;;;;19.36;58.07;100784.84;5096360;27;45204;-61
2022/08/22 04:43:35;;;;;;;;;2.00;2.00;;;;;19.34;58.56;100784.13;5096270;27;45451;-60
2022/08/22 04:46:18;;;;;;;;;4.67;4.33;;;;;19.35;58.59;100783.16;5096568;27;45534;-61
2022/08/22 04:48:51;;;;;;;;;3.67;3.67;;;;;19.37;58.40;100775.75;5096003;27;45368;-64
2022/08/22 04:51:29;;;;;;;;;4.00;4.00;;;;;19.37;58.64;100786.56;5077736;27;45345;-60
2022/08/22 04:54:08;;;;;;;;;3.33;3.33;;;;;19.36;58.32;100790.25;5096610;27;45399;-64
2022/08/22 04:57:11;;;;;;;;;6.33;4.33;;;;;19.36;58.42;100810.97;5096250;27;45219;-64
2022/08/22 04:59:37;;;;;;;;;7.67;4.67;;;;;19.38;58.24;100808.97;5096198;27;46273;-66
2022/08/22 05:02:08;;;;;;;;;6.00;5.00;;;;;19.31;58.16;100797.91;5077977;27;45361;-67
2022/08/22 05:04:47;;;;;;;;;5.00;3.67;;;;;19.35;58.38;100793.94;5096504;27;45294;-59
2022/08/22 05:07:21;;;;;;;;;4.67;4.67;;;;;19.36;57.92;100798.34;5097399;27;45370;-62
2022/08/22 05:09:53;;;;;;;;;3.00;3.00;;;;;19.34;58.39;100803.00;5078091;27;46651;-67
2022/08/22 05:12:24;;;;;;;;;3.00;3.00;;;;;19.36;58.64;100816.34;5095596;27;45463;-62
2022/08/22 05:15:00;;;;;;;;;3.33;3.33;;;;;19.36;58.72;100833.38;5090232;27;45461;-61
2022/08/22 05:17:30;;;;;;;;;6.67;4.00;;;;;19.41;58.46;100822.22;5076040;28;45454;-62
2022/08/22 05:20:05;;;;;;;;;4.67;4.00;;;;;19.34;58.67;100799.47;5075718;28;46487;-62
2022/08/22 05:22:38;;;;;;;;;6.33;4.00;;;;;19.37;58.37;100800.03;5075478;28;45574;-61
2022/08/22 05:25:11;;;;;;;;;8.00;5.00;;;;;19.42;58.49;100805.88;5075740;28;45390;-62
2022/08/22 05:27:48;;;;;;;;;4.33;4.33;;;;;19.41;58.61;100806.03;5077317;28;45245;-61
2022/08/22 05:30:20;;;;;;;;;5.33;5.33;;;;;19.45;58.30;100816.41;5079399;28;46163;-63
2022/08/22 05:32:58;;;;;;;;;5.67;5.67;;;;;19.42;58.26;100818.53;5078785;28;45227;-61
2022/08/22 05:35:35;;;;;;;;;7.67;5.00;;;;;19.45;58.17;100827.19;5079226;27;45423;-60
2022/08/22 05:38:03;;;;;;;;;8.67;4.33;;;;;19.49;57.66;100832.28;5078903;28;45389;-61
2022/08/22 05:40:32;;;;;;;;;5.67;4.67;;;;;19.54;57.69;100848.94;5079022;28;46121;-60
2022/08/22 05:42:58;;;;;;;;;4.00;4.00;;;;;19.55;57.72;100843.44;5077916;28;45385;-61
2022/08/22 05:45:25;;;;;;;;;4.67;4.67;;;;;19.52;58.19;100832.88;5077670;28;45283;-61
2022/08/22 05:47:59;;;;;;;;;6.00;4.00;;;;;19.58;58.09;100834.22;5079075;28;45464;-63
2022/08/22 05:50:27;;;;;;;;;5.00;4.00;;;;;19.67;57.37;100838.78;5078432;28;46098;-66
2022/08/22 05:53:18;;;;;;;;;8.67;7.33;;;;;19.63;57.17;100835.50;5078519;27;45449;-66
2022/08/22 05:55:55;;;;;;;;;4.33;4.33;;;;;19.62;57.55;100833.78;5033286;27;45518;-62
2022/08/22 05:58:45;;;;;;;;;5.00;3.00;;;;;19.60;57.42;100843.88;5080688;28;45428;-65
2022/08/22 06:01:26;;;;;;;;;5.33;4.00;;;;;19.62;57.67;100839.19;5080946;28;45365;-64
2022/08/22 06:04:19;;;;;;;;;5.00;5.00;;;;;19.65;57.54;100846.16;5060154;28;45322;-65
2022/08/22 06:06:53;;;;;;;;;4.00;3.67;;;;;19.64;57.67;100848.00;5077236;28;45326;-62
2022/08/22 06:09:39;;;;;;;;;5.67;4.33;;;;;19.63;57.80;100837.34;5078392;28;45512;-65
2022/08/22 06:12:20;;;;;;;;;4.00;4.00;;;;;19.64;57.83;100852.53;5059913;28;46405;-64
2022/08/22 06:14:56;;;;;;;;;7.67;4.00;;;;;19.59;57.55;100844.00;5083088;27;45255;-64
2022/08/22 06:17:27;;;;;;;;;6.00;5.33;;;;;19.69;57.44;100855.69;5098893;27;45281;-61
2022/08/22 06:19:53;;;;;;;;;3.33;3.33;;;;;19.61;57.47;100833.94;5098814;27;45598;-63
2022/08/22 06:22:30;;;;;;;;;4.00;4.00;;;;;19.65;57.34;100827.25;5097643;27;45295;-63
2022/08/22 06:25:12;;;;;;;;;7.00;4.00;;;;;19.69;57.36;100840.34;5097340;27;45434;-61
2022/08/22 06:27:38;;;;;;;;;5.00;5.00;;;;;19.72;57.67;100850.00;5081204;27;45366;-61
2022/08/22 06:30:06;;;;;;;;;3.33;3.33;;;;;19.77;57.48;100853.13;5098329;27;45313;-63
2022/08/22 06:32:40;;;;;;;;;6.00;5.00;;;;;19.80;57.72;100852.03;5097263;27;46094;-62
2022/08/22 06:35:14;;;;;;;;;6.67;5.00;;;;;19.84;57.45;100861.53;5096938;27;45304;-63
2022/08/22 06:37:44;;;;;;;;;6.67;5.33;;;;;19.85;57.52;100856.00;5080288;27;45347;-61
2022/08/22 06:40:13;;;;;;;;;3.00;3.00;;;;;19.87;57.49;100843.22;5096555;27;45420;-61
2022/08/22 06:42:43;;;;;;;;;6.67;6.67;;;;;20.01;57.49;100853.59;5079397;27;47178;-61
2022/08/22 06:45:16;;;;;;;;;4.67;4.67;;;;;20.08;57.47;100853.91;5097734;27;45409;-61
2022/08/22 06:47:47;;;;;;;;;7.00;5.00;;;;;20.11;57.23;100840.13;5098231;27;45513;-63
2022/08/22 06:50:32;;;;;;;;;5.00;5.00;;;;;20.28;56.94;100847.50;5080341;27;45735;-62
2022/08/22 06:53:06;;;;;;;;;7.33;6.33;;;;;20.34;56.70;100840.69;5097044;27;46209;-61
2022/08/22 06:55:36;;;;;;;;;5.33;4.00;;;;;20.50;56.24;100835.59;5097887;27;45327;-61
2022/08/22 06:58:05;;;;;;;;;6.67;4.00;;;;;20.62;55.82;100833.59;5098232;27;45307;-62
2022/08/22 07:00:34;;;;;;;;;4.00;4.00;;;;;20.72;56.40;100838.97;5097619;27;45534;-62
2022/08/22 07:03:10;;;;;;;;;5.67;5.00;;;;;20.82;56.21;100845.19;5097691;27;45449;-62
2022/08/22 07:05:41;;;;;;;;;7.33;5.00;;;;;20.89;55.38;100843.63;5097078;27;45247;-61
2022/08/22 07:08:11;;;;;;;;;7.33;5.00;;;;;20.91;55.09;100847.88;5097693;27;45387;-60
2022/08/22 07:10:40;;;;;;;;;4.67;4.33;;;;;20.92;55.09;100856.84;5079595;27;45643;-61
2022/08/22 07:13:10;;;;;;;;;8.67;6.33;;;;;20.96;55.08;100863.66;5097078;27;45445;-62
2022/08/22 07:15:40;;;;;;;;;3.67;2.33;;;;;20.99;54.97;100874.19;5084976;27;45388;-63
2022/08/22 07:18:19;;;;;;;;;5.00;5.00;;;;;21.00;55.17;100865.09;5077143;28;45361;-62
2022/08/22 07:20:53;;;;;;;;;4.67;4.33;;;;;21.10;55.28;100871.31;5077949;27;45654;-64
2022/08/22 07:23:44;;;;;;;;;8.33;7.00;;;;;21.18;54.91;100874.13;5078729;28;46148;-64
2022/08/22 07:26:21;;;;;;;;;2.33;2.00;;;;;21.24;54.56;100872.69;5077560;28;45452;-68
2022/08/22 07:29:10;;;;;;;;;10.00;5.00;;;;;21.19;54.66;100875.84;5077308;28;45313;-61
2022/08/22 07:31:45;;;;;;;;;5.25;4.75;;;;;21.07;55.00;100846.41;5077490;28;45462;-61
2022/08/22 07:34:36;;;;;;;;;5.00;5.00;;;;;21.20;54.56;100874.81;5076190;28;45762;-64
2022/08/22 07:37:31;;;;;;;;;9.00;6.00;;;;;21.22;54.51;100874.69;5077355;28;45417;-63
2022/08/22 07:40:13;;;;;;;;;6.67;4.67;;;;;21.30;54.19;100874.84;4987201;27;45408;-64
2022/08/22 07:42:56;;;;;;;;;5.33;5.00;;;;;21.38;54.45;100879.50;5077669;28;45479;-62
2022/08/22 07:45:38;;;;;;;;;5.00;3.67;;;;;21.48;54.26;100880.31;5077108;28;45406;-63
2022/08/22 07:48:13;;;;;;;;;6.00;6.00;;;;;21.60;54.20;100878.25;5078207;28;45259;-61
2022/08/22 07:51:07;;;;;;;;;5.00;4.00;;;;;21.69;53.76;100889.03;5075860;28;45243;-64
2022/08/22 07:53:39;;;;;;;;;7.67;5.67;;;;;21.71;53.13;100876.19;5077600;28;45564;-62
2022/08/22 07:56:12;;;;;;;;;6.00;5.00;;;;;21.82;53.17;100882.41;5058428;28;45601;-60
2022/08/22 07:58:40;;;;;;;;;5.75;5.75;;;;;21.85;53.31;100885.66;5076134;28;45402;-60
2022/08/22 08:01:15;;;;;;;;;5.00;5.00;;;;;21.85;52.87;100871.28;5076721;28;45462;-63
2022/08/22 08:03:46;;;;;;;;;11.33;8.00;;;;;21.85;52.65;100865.88;5076845;28;45382;-64
2022/08/22 08:06:12;;;;;;;;;4.50;4.50;;;;;21.93;53.38;100874.09;5076172;28;45183;-63
2022/08/22 08:08:43;;;;;;;;;4.25;4.25;;;;;21.93;53.57;100858.69;5076405;28;45315;-61
2022/08/22 08:11:12;;;;;;;;;6.25;6.25;;;;;22.04;52.93;100877.44;5076507;28;45289;-61
2022/08/22 08:13:41;;;;;;;;;5.00;5.00;;;;;22.04;52.86;100885.56;5076558;28;45312;-63
2022/08/22 08:16:16;;;;;;;;;9.00;6.33;;;;;22.05;52.87;100878.28;5092861;27;45425;-64
2022/08/22 08:18:45;;;;;;;;;6.00;5.33;;;;;22.08;52.68;100883.41;5096414;27;45386;-65
2022/08/22 08:21:25;;;;;;;;;7.00;5.33;;;;;22.19;52.88;100885.06;5096883;27;45330;-60
2022/08/22 08:23:52;;;;;;;;;6.00;6.00;;;;;22.30;52.13;100888.41;5097109;27;45374;-61
2022/08/22 08:26:26;;;;;;;;;7.50;7.25;;;;;22.36;51.97;100890.47;5096517;27;45431;-66
2022/08/22 08:28:57;;;;;;;;;5.25;5.00;;;;;22.34;52.29;100865.41;5097055;27;45325;-63
2022/08/22 08:31:30;;;;;;;;;4.00;4.00;;;;;22.50;52.00;100880.09;5096677;27;45324;-63
2022/08/22 08:34:05;;;;;;;;;4.50;4.25;;;;;22.62;51.99;100876.97;5078693;27;45381;-64
2022/08/22 08:36:47;;;;;;;;;6.00;4.25;;;;;22.81;51.48;100875.97;5096097;27;45338;-65
2022/08/22 08:39:18;;;;;;;;;7.75;3.50;;;;;23.23;51.14;100880.66;5079564;27;45495;-65
2022/08/22 08:41:56;;;;;;;;;8.50;6.00;;;;;23.58;50.23;100873.44;5096738;27;45421;-64
2022/08/22 08:44:30;;;;;;;;;4.00;4.00;;;;;24.01;49.22;100873.22;5096556;27;45336;-66
2022/08/22 08:47:14;;;;;;;;;5.75;4.25;;;;;24.37;48.50;100881.13;5096145;27;46199;-63
2022/08/22 08:49:58;;;;;;;;;5.25;4.50;;;;;24.78;47.97;100865.66;5096904;27;45393;-62
2022/08/22 08:52:51;;;;;;;;;4.75;4.00;;;;;25.20;47.87;100864.59;5097250;27;45392;-65
2022/08/22 08:55:18;;;;;;;;;6.50;4.75;;;;;25.44;46.93;100861.78;5096937;27;45362;-64
2022/08/22 08:58:21;;;;;;;;;3.50;3.50;;;;;25.68;46.58;100854.56;5096322;27;45521;-63
2022/08/22 09:01:00;;;;;;;;;5.40;4.00;;;;;26.04;45.10;100841.25;5095744;27;45276;-61
2022/08/22 09:03:28;;;;;;;;;4.40;3.60;;;;;26.49;44.53;100836.88;5097373;27;45535;-63
2022/08/22 09:06:29;;;;;;;;;5.50;5.50;;;;;26.84;44.29;100838.94;5100004;27;45575;-60
2022/08/22 09:09:22;;;;;;;;;3.80;3.80;;;;;27.13;42.90;100834.56;5099563;27;47710;-61
2022/08/22 09:12:18;;;;;;;;;2.80;2.80;;;;;27.35;43.16;100828.16;5085963;27;45230;-62
2022/08/22 09:15:15;;;;;;;;;3.00;3.00;;;;;27.46;42.54;100838.56;5094729;27;45465;-64
2022/08/22 09:18:26;;;;;;;;;3.80;3.40;;;;;27.61;42.02;100828.50;5079437;28;45398;-62
2022/08/22 09:21:38;;;;;;;;;3.40;3.40;;;;;27.89;42.87;100825.06;5078516;28;46361;-62
2022/08/22 09:24:15;;;;;;;;;5.20;5.00;;;;;27.93;39.93;100837.31;5001892;28;45534;-64
2022/08/22 09:27:05;;;;;;;;;3.00;3.00;;;;;28.09;40.47;100828.84;5079797;27;45251;-68
2022/08/22 09:30:06;;;;;;;;;3.60;3.00;;;;;28.47;40.42;100832.19;5080707;28;45495;-64
2022/08/22 09:32:53;;;;;;;;;3.80;3.20;;;;;28.71;39.86;100830.09;5076184;28;45343;-63
2022/08/22 09:35:34;;;;;;;;;3.00;3.00;;;;;28.82;39.68;100826.81;5078991;28;45342;-64
2022/08/22 09:38:06;;;;;;;;;1.60;1.60;;;;;28.75;37.42;100829.47;5079086;28;45342;-64
2022/08/22 09:40:59;;;;;;;;;3.60;2.00;;;;;28.85;39.05;100828.28;5079373;28;45549;-63
2022/08/22 09:43:57;;;;;;;;;2.60;2.00;;;;;28.96;36.30;100817.66;5078773;28;46222;-63
2022/08/22 09:46:26;;;;;;;;;1.40;0.60;;;;;29.10;37.65;100813.13;5064363;28;45488;-61
2022/08/22 09:49:05;;;;;;;;;1.60;1.00;;;;;29.17;37.52;100802.19;5078818;28;45304;-61
2022/08/22 09:51:37;;;;;;;;;2.00;2.00;;;;;29.13;38.11;100815.44;5078673;28;45619;-64
2022/08/22 09:54:43;;;;;;;;;1.40;1.40;;;;;29.21;38.07;100808.97;5079058;28;46614;-63
2022/08/22 09:57:27;;;;;;;;;3.40;2.00;;;;;29.34;37.23;100814.50;5079001;28;45281;-66
2022/08/22 10:00:24;;;;;;;;;2.80;2.60;;;;;29.22;36.99;100808.75;5078313;27;45377;-66
2022/08/22 10:03:02;;;;;;;;;1.60;1.00;;;;;29.31;37.20;100804.81;5078639;28;45519;-65
2022/08/22 10:05:34;;;;;;;;;2.20;2.20;;;;;29.20;36.50;100813.59;5078399;28;46201;-63
2022/08/22 10:08:17;;;;;;;;;3.00;3.00;;;;;29.13;36.78;100809.97;5078189;28;45330;-64
2022/08/22 10:11:16;;;;;;;;;2.80;2.80;;;;;28.98;38.03;100814.72;5078882;28;45306;-63
2022/08/22 10:13:54;;;;;;;;;2.00;2.00;;;;;28.59;37.91;100818.81;5078620;28;45620;-65
2022/08/22 10:16:51;;;;;;;;;2.00;2.00;;;;;28.27;38.82;100806.56;5096940;27;46382;-62
2022/08/22 10:19:38;;;;;;;;;5.00;3.20;;;;;27.79;39.05;100814.44;5098584;27;45580;-62
2022/08/22 10:22:34;;;;;;;;;2.20;2.20;;;;;27.51;39.49;100814.28;5098412;27;45563;-62
2022/08/22 10:25:21;;;;;;;;;1.40;1.40;;;;;27.25;39.85;100816.66;5098595;27;45463;-62
2022/08/22 10:27:52;;;;;;;;;4.00;2.00;;;;;27.06;40.64;100811.75;5098289;27;46398;-62
2022/08/22 10:30:30;;;;;;;;;3.60;3.60;;;;;26.69;41.57;100816.19;5098217;27;45235;-61
2022/08/22 10:33:09;;;;;;;;;3.00;3.00;;;;;26.40;41.51;100811.53;5097179;27;45401;-62
2022/08/22 10:35:50;;;;;;;;;2.00;2.00;;;;;26.18;41.76;100805.06;5098568;27;45505;-65
2022/08/22 10:38:27;;;;;;;;;2.20;2.20;;;;;26.07;41.69;100816.38;5079714;27;45489;-62
2022/08/22 10:41:04;;;;;;;;;5.00;4.00;;;;;25.95;42.09;100805.03;5098253;27;45463;-61
2022/08/22 10:43:51;;;;;;;;;2.40;2.20;;;;;25.87;42.13;100807.81;5098340;27;45233;-62
2022/08/22 10:46:26;;;;;;;;;2.50;2.50;;;;;25.69;42.79;100812.69;5098168;27;45425;-63
2022/08/22 10:48:59;;;;;;;;;4.00;2.60;;;;;25.60;42.68;100811.84;5097875;27;45641;-61
2022/08/22 10:51:51;;;;;;;;;2.00;2.00;;;;;25.53;42.79;100809.00;5097919;27;45317;-63
2022/08/22 10:54:16;;;;;;;;;6.00;2.00;;;;;25.49;43.03;100812.25;5098216;27;45375;-62
2022/08/22 10:56:58;;;;;;;;;2.00;2.00;;;;;25.47;42.86;100797.97;5098296;27;45365;-61
2022/08/22 10:59:35;;;;;;;;;5.00;2.25;;;;;25.41;43.03;100799.53;5097607;27;46178;-64
2022/08/22 11:02:19;;;;;;;;;3.60;2.40;;;;;25.50;43.46;100809.34;5097937;27;45524;-65
2022/08/22 11:05:03;;;;;;;;;2.75;2.75;;;;;25.70;42.87;100803.50;5098332;27;45327;-61
2022/08/22 11:07:52;;;;;;;;;4.50;3.00;;;;;25.81;43.24;100809.38;5098153;27;45649;-66
2022/08/22 11:10:41;;;;;;;;;3.00;2.60;;;;;25.99;43.96;100809.09;5079076;27;46144;-64
2022/08/22 11:13:25;;;;;;;;;2.60;2.40;;;;;26.01;42.84;100806.19;5099031;27;45218;-63
2022/08/22 11:16:12;;;;;;;;;3.60;2.20;;;;;26.08;43.11;100813.47;5083619;27;45185;-61
2022/08/22 11:18:57;;;;;;;;;4.25;2.75;;;;;26.22;42.58;100803.66;5077467;28;45524;-63
2022/08/22 11:21:29;;;;;;;;;3.80;3.80;;;;;26.29;42.31;100810.03;5076781;28;45289;-61
2022/08/22 11:24:26;;;;;;;;;3.00;3.00;;;;;26.41;41.71;100808.63;5058664;28;45349;-61
2022/08/22 11:27:04;;;;;;;;;2.00;2.00;;;;;26.46;42.32;100794.44;5076801;28;45462;-64
2022/08/22 11:29:50;;;;;;;;;5.00;3.60;;;;;26.53;42.11;100800.00;5059120;28;45413;-62
2022/08/22 11:32:33;;;;;;;;;2.80;2.80;;;;;26.49;41.71;100793.22;5077309;28;45456;-63
2022/08/22 11:35:24;;;;;;;;;5.60;4.40;;;;;26.41;42.16;100794.13;5077056;28;45433;-66
2022/08/22 11:38:32;;;;;;;;;1.60;1.60;;;;;26.55;42.39;100795.19;5047594;28;45291;-63
2022/08/22 11:41:27;;;;;;;;;3.00;3.00;;;;;26.69;42.26;100794.38;5025272;28;45270;-62
2022/08/22 11:43:56;;;;;;;;;2.80;1.60;;;;;26.65;42.16;100790.34;5076923;28;46415;-63
2022/08/22 11:46:35;;;;;;;;;1.00;1.00;;;;;26.61;41.76;100794.47;5076535;27;45567;-66
2022/08/22 11:49:30;;;;;;;;;0.60;0.60;;;;;26.65;41.72;100776.69;5076732;28;45234;-62
2022/08/22 11:52:38;;;;;;;;;1.00;1.00;;;;;26.80;41.73;100780.28;5077086;28;45423;-65
2022/08/22 11:55:17;;;;;;;;;2.00;2.00;;;;;26.95;41.37;100775.66;5075868;28;45381;-60
2022/08/22 11:57:47;;;;;;;;;0.60;0.60;;;;;26.99;41.54;100778.91;5077359;28;45433;-61
2022/08/22 12:00:49;;;;;;;;;1.00;1.00;;;;;26.72;42.14;100764.84;5077372;28;45338;-65
2022/08/22 12:03:20;;;;;;;;;2.00;1.20;;;;;26.86;41.85;100774.09;5073693;28;45267;-62
2022/08/22 12:06:11;;;;;;;;;2.00;2.00;;;;;26.84;42.47;100780.78;5077359;27;45443;-61
2022/08/22 12:08:49;;;;;;;;;0.40;0.40;;;;;26.72;42.27;100783.13;5058563;28;45420;-63
2022/08/22 12:11:14;;;;;;;;;3.00;1.00;;;;;26.72;42.51;100788.56;5076914;28;45391;-60
2022/08/22 12:13:48;;;;;;;;;1.00;1.00;;;;;26.63;42.60;100779.59;5058750;28;45425;-64
2022/08/22 12:16:27;;;;;;;;;1.80;1.80;;;;;26.67;43.00;100780.06;5093799;27;45432;-63
2022/08/22 12:19:19;;;;;;;;;2.00;2.00;;;;;26.69;42.41;100772.53;5096945;27;45440;-64
2022/08/22 12:21:59;;;;;;;;;3.40;2.00;;;;;26.90;42.90;100783.59;5097307;27;45346;-64
2022/08/22 12:24:33;;;;;;;;;3.80;3.80;;;;;26.85;42.25;100772.41;5096978;27;45711;-63
2022/08/22 12:27:16;;;;;;;;;1.80;1.00;;;;;26.92;42.18;100775.22;5096973;27;45440;-64
2022/08/22 12:30:07;;;;;;;;;3.00;3.00;;;;;27.29;42.07;100763.34;5096752;27;45369;-64